Airport ICAO


09:26 UTC

9°C

Clear skies


An affordable passengers' Moving Map for your aircraft. Made for the iPad and the iPhone
More information here

LFTH Le Palyvestre


Hyeres FRANCE   VFR CAVOK


METAR LFTH 180900Z AUTO 32007KT 290V010 CAVOK 09/M03 Q1012 NOSIG 0h26min

TAF LFTH 180800Z 1809/1909 33010KT CAVOK TEMPO 1809/1812 32010G20KT BECMG 1902/1904 36005KT BKN025 1h26min





NOTAMS

OPEN